Stickney, South Dakota
Current Conditions -  °F | °C
As of 1:50 AM on Monday 24 Nov 2014 (Local Time) from K9V9 Reporting Station
Overcast Overcast  
Wind Chill:   Ceiling: 2200
Heat Index: 25°   Visibility: 10mi
Dew Point: 17°   Wind: 24mph
Humidity: 72%   Direction: 320°NW
Pressure: 29.65"   Gusts: 35mph
Location:  43.59°N, 98.44°W
Report Text: K9V9 240750Z AUTO 32021G30KT 10SM OVC022 M04/M08 A2965 RMK AO2 T10401084
Loading
Personal Weather Stations






























Interactive Weather Map New forecast layout! Learn more

10-Day Weather Forecast

Advertisements
Track Severe Weather on mobile